UAE4212 OMDB-ZGGG
Flight info
| Callsign | UAE4212 |
|---|---|
| Flight time | N/A |
| Altitude | 39000 |
| Route | IVURO M677 LALDO B505 NADSO A777 VAXIM L301 RASKI L639 BPL A791 JJS Q19 CEA B465 CTG A599 LSO/N0485F410 A599 LINSO/K0898S1250 A599 GYA GYA2 |
| Aircraft | A359/H-SDE2E3GHIJ3J4J5LM1ORWXY/LB1D1 |
Departure
| Time | 2026-05-04 06:05 |
|---|---|
| Airport | Dubai International Airport (OMDB) |
Arrival
| Time | N/A |
|---|---|
| Airport | Guangzhou Baiyun International Airport (ZGGG) |
| Time | Latitude | Longitude | Altitude | Speed | Heading |
|---|---|---|---|---|---|
| 2026-05-04 05:40 | 25.24436 | 55.37215 | 76 ft | 0 kts | 212° |
| 2026-05-04 05:55 | 25.24439 | 55.37218 | 75 ft | 0 kts | 212° |
| 2026-05-04 05:55 | 25.24443 | 55.37220 | 75 ft | 0 kts | 212° |
| 2026-05-04 05:55 | 25.24453 | 55.37227 | 75 ft | 0 kts | 212° |
| 2026-05-04 05:55 | 25.24471 | 55.37240 | 75 ft | 0 kts | 212° |
| 2026-05-04 05:56 | 25.24485 | 55.37249 | 75 ft | 0 kts | 212° |
| 2026-05-04 05:56 | 25.24500 | 55.37260 | 75 ft | 0 kts | 212° |
| 2026-05-04 05:56 | 25.24513 | 55.37268 | 75 ft | 0 kts | 216° |
| 2026-05-04 05:56 | 25.24516 | 55.37268 | 75 ft | 0 kts | 255° |
| 2026-05-04 05:57 | 25.24517 | 55.37268 | 75 ft | 0 kts | 275° |
| 2026-05-04 05:57 | 25.24516 | 55.37278 | 75 ft | 0 kts | 295° |
| 2026-05-04 05:57 | 25.24517 | 55.37279 | 75 ft | 0 kts | 289° |
| 2026-05-04 05:58 | 25.24517 | 55.37270 | 75 ft | 1 kts | 264° |
| 2026-05-04 05:58 | 25.24534 | 55.37220 | 75 ft | 10 kts | 306° |
| 2026-05-04 05:59 | 25.24545 | 55.37205 | 75 ft | 7 kts | 306° |
| 2026-05-04 05:59 | 25.24568 | 55.37171 | 75 ft | 9 kts | 307° |
| 2026-05-04 05:59 | 25.24598 | 55.37124 | 75 ft | 10 kts | 304° |
| 2026-05-04 05:59 | 25.24637 | 55.37058 | 75 ft | 12 kts | 300° |
| 2026-05-04 06:00 | 25.24687 | 55.36964 | 75 ft | 15 kts | 301° |
| 2026-05-04 06:00 | 25.24747 | 55.36854 | 75 ft | 18 kts | 300° |
| 2026-05-04 06:00 | 25.24780 | 55.36727 | 75 ft | 20 kts | 282° |
| 2026-05-04 06:00 | 25.24829 | 55.36592 | 75 ft | 21 kts | 300° |
| 2026-05-04 06:01 | 25.24908 | 55.36451 | 75 ft | 21 kts | 308° |
| 2026-05-04 06:01 | 25.25011 | 55.36395 | 75 ft | 17 kts | 5° |
| 2026-05-04 06:03 | 25.25159 | 55.36655 | 75 ft | 23 kts | 122° |
| 2026-05-04 06:03 | 25.24973 | 55.36998 | 75 ft | 89 kts | 120° |
| 2026-05-04 06:05 | 25.20450 | 55.45171 | 2745 ft | 215 kts | 116° |
| 2026-05-04 06:05 | 25.19965 | 55.48473 | 3403 ft | 241 kts | 92° |
| 2026-05-04 06:05 | 25.19943 | 55.50299 | 3961 ft | 243 kts | 92° |
| 2026-05-04 06:06 | 25.19920 | 55.52188 | 4563 ft | 245 kts | 93° |
| 2026-05-04 06:06 | 25.19885 | 55.54049 | 5153 ft | 246 kts | 93° |
| 2026-05-04 06:06 | 25.19841 | 55.55931 | 5715 ft | 248 kts | 94° |
| 2026-05-04 06:06 | 25.19790 | 55.57824 | 6323 ft | 248 kts | 94° |
| 2026-05-04 06:07 | 25.19748 | 55.59822 | 6954 ft | 250 kts | 89° |
| 2026-05-04 06:07 | 25.20234 | 55.61699 | 7249 ft | 268 kts | 58° |
| 2026-05-04 06:07 | 25.21597 | 55.63249 | 7556 ft | 285 kts | 41° |
| 2026-05-04 06:07 | 25.23330 | 55.64826 | 8048 ft | 294 kts | 41° |
| 2026-05-04 06:08 | 25.25058 | 55.66401 | 8694 ft | 296 kts | 42° |
| 2026-05-04 06:08 | 25.26744 | 55.67966 | 9281 ft | 300 kts | 42° |
| 2026-05-04 06:08 | 25.28346 | 55.69466 | 9874 ft | 302 kts | 43° |
| 2026-05-04 06:08 | 25.29972 | 55.70993 | 10456 ft | 305 kts | 43° |
| 2026-05-04 06:09 | 25.31622 | 55.72550 | 10736 ft | 318 kts | 43° |
| 2026-05-04 06:09 | 25.33328 | 55.74160 | 11000 ft | 331 kts | 44° |
| 2026-05-04 06:11 | 25.37096 | 55.92849 | 14183 ft | 362 kts | 92° |
| 2026-05-04 06:11 | 25.36914 | 55.95752 | 14705 ft | 363 kts | 100° |
| 2026-05-04 06:13 | 25.32882 | 56.15333 | 17992 ft | 384 kts | 102° |
| 2026-05-04 06:14 | 25.31276 | 56.33367 | 20487 ft | 404 kts | 98° |
| 2026-05-04 06:14 | 25.31017 | 56.36475 | 20885 ft | 407 kts | 98° |
| 2026-05-04 06:15 | 25.30780 | 56.39633 | 21281 ft | 411 kts | 97° |
| 2026-05-04 06:15 | 25.30658 | 56.42783 | 21668 ft | 415 kts | 95° |
| 2026-05-04 06:15 | 25.30566 | 56.45974 | 22051 ft | 418 kts | 95° |
| 2026-05-04 06:15 | 25.30477 | 56.49165 | 22430 ft | 422 kts | 95° |
| 2026-05-04 06:16 | 25.30383 | 56.52446 | 22817 ft | 425 kts | 95° |
| 2026-05-04 06:16 | 25.30278 | 56.55741 | 23189 ft | 427 kts | 97° |
| 2026-05-04 06:16 | 25.29890 | 56.59283 | 23580 ft | 427 kts | 104° |
| 2026-05-04 06:16 | 25.29073 | 56.62760 | 23968 ft | 426 kts | 112° |
| 2026-05-04 06:17 | 25.27887 | 56.66148 | 24362 ft | 428 kts | 117° |
| 2026-05-04 06:17 | 25.26691 | 56.69288 | 24720 ft | 430 kts | 117° |
| 2026-05-04 06:17 | 25.25496 | 56.72395 | 25065 ft | 433 kts | 117° |
| 2026-05-04 06:17 | 25.24250 | 56.75641 | 25412 ft | 437 kts | 117° |
| 2026-05-04 06:18 | 25.23011 | 56.78882 | 25756 ft | 440 kts | 117° |
| 2026-05-04 06:18 | 25.21799 | 56.82061 | 26083 ft | 443 kts | 117° |
| 2026-05-04 06:18 | 25.20566 | 56.85297 | 26398 ft | 446 kts | 117° |
| 2026-05-04 06:20 | 25.11034 | 57.10294 | 28683 ft | 462 kts | 117° |
| 2026-05-04 06:20 | 25.09621 | 57.13986 | 28980 ft | 465 kts | 117° |
| 2026-05-04 06:21 | 25.03974 | 57.28710 | 29963 ft | 475 kts | 116° |
| 2026-05-04 06:21 | 25.02594 | 57.32304 | 30252 ft | 476 kts | 116° |
| 2026-05-04 06:22 | 25.01121 | 57.36133 | 30543 ft | 477 kts | 116° |
| 2026-05-04 06:22 | 24.99717 | 57.39782 | 30773 ft | 479 kts | 116° |
| 2026-05-04 06:25 | 24.81216 | 57.87007 | 33775 ft | 485 kts | 118° |
| 2026-05-04 06:25 | 24.79723 | 57.90415 | 33971 ft | 485 kts | 118° |
| 2026-05-04 06:26 | 24.78221 | 57.93842 | 34160 ft | 486 kts | 118° |
| 2026-05-04 06:26 | 24.76739 | 57.97227 | 34355 ft | 485 kts | 118° |
| 2026-05-04 06:26 | 24.75244 | 58.00640 | 34568 ft | 485 kts | 118° |
| 2026-05-04 06:26 | 24.73775 | 58.03998 | 34780 ft | 484 kts | 118° |
| 2026-05-04 06:27 | 24.67970 | 58.17250 | 35539 ft | 481 kts | 118° |
| 2026-05-04 06:28 | 24.66507 | 58.20586 | 35707 ft | 481 kts | 118° |
| 2026-05-04 06:28 | 24.65047 | 58.23911 | 35864 ft | 481 kts | 118° |
| 2026-05-04 06:28 | 24.63611 | 58.27184 | 36022 ft | 480 kts | 118° |
| 2026-05-04 06:28 | 24.62158 | 58.30490 | 36190 ft | 479 kts | 118° |
| 2026-05-04 06:29 | 24.60702 | 58.33800 | 36346 ft | 479 kts | 118° |
| 2026-05-04 06:29 | 24.59246 | 58.37105 | 36485 ft | 479 kts | 118° |
| 2026-05-04 06:29 | 24.57812 | 58.40360 | 36607 ft | 479 kts | 118° |
| 2026-05-04 06:29 | 24.56368 | 58.43634 | 36728 ft | 479 kts | 118° |
| 2026-05-04 06:30 | 24.54917 | 58.46924 | 36842 ft | 479 kts | 118° |
| 2026-05-04 06:30 | 24.53455 | 58.50234 | 36953 ft | 479 kts | 118° |
| 2026-05-04 06:30 | 24.50564 | 58.56774 | 37122 ft | 480 kts | 118° |
| 2026-05-04 06:31 | 24.47579 | 58.63523 | 37283 ft | 481 kts | 118° |
| 2026-05-04 06:31 | 24.44665 | 58.70123 | 37420 ft | 482 kts | 118° |
| 2026-05-04 06:33 | 24.32911 | 58.96556 | 37894 ft | 485 kts | 118° |
| 2026-05-04 06:34 | 24.29953 | 59.03182 | 37975 ft | 486 kts | 118° |
| 2026-05-04 06:34 | 24.26972 | 59.09857 | 38065 ft | 487 kts | 118° |
| 2026-05-04 06:36 | 24.15037 | 59.36478 | 38431 ft | 489 kts | 118° |
| 2026-05-04 06:37 | 24.12045 | 59.43129 | 38524 ft | 490 kts | 118° |
| 2026-05-04 06:37 | 24.09028 | 59.49822 | 38584 ft | 491 kts | 118° |
| 2026-05-04 06:38 | 24.06020 | 59.56479 | 38655 ft | 491 kts | 118° |
| 2026-05-04 06:40 | 23.95439 | 59.79889 | 38816 ft | 492 kts | 119° |
| 2026-05-04 06:40 | 23.93924 | 59.83229 | 38818 ft | 492 kts | 119° |
| 2026-05-04 06:40 | 23.90889 | 59.89908 | 38817 ft | 492 kts | 119° |
| 2026-05-04 06:41 | 23.87827 | 59.96598 | 38817 ft | 492 kts | 119° |
| 2026-05-04 06:41 | 23.84771 | 60.03242 | 38817 ft | 492 kts | 119° |
| 2026-05-04 06:42 | 23.81708 | 60.09928 | 38817 ft | 492 kts | 119° |
| 2026-05-04 06:44 | 23.69425 | 60.36732 | 38817 ft | 492 kts | 119° |
| 2026-05-04 06:44 | 23.66352 | 60.43417 | 38818 ft | 492 kts | 119° |
| 2026-05-04 06:45 | 23.63298 | 60.50054 | 38817 ft | 492 kts | 119° |
| 2026-05-04 06:45 | 23.60218 | 60.56732 | 38817 ft | 492 kts | 119° |
| 2026-05-04 06:46 | 23.57144 | 60.63393 | 38817 ft | 492 kts | 119° |
| 2026-05-04 06:46 | 23.54088 | 60.70025 | 38817 ft | 492 kts | 119° |
| 2026-05-04 06:48 | 23.41797 | 60.96565 | 38816 ft | 492 kts | 119° |
| 2026-05-04 06:50 | 23.31347 | 61.24003 | 38816 ft | 497 kts | 102° |
| 2026-05-04 06:51 | 23.30418 | 61.31451 | 38819 ft | 498 kts | 96° |
| 2026-05-04 06:51 | 23.29782 | 61.38958 | 38818 ft | 498 kts | 96° |
| 2026-05-04 06:52 | 23.29138 | 61.46443 | 38818 ft | 498 kts | 96° |
| 2026-05-04 06:52 | 23.28474 | 61.53937 | 38818 ft | 498 kts | 96° |
| 2026-05-04 06:53 | 23.27806 | 61.61380 | 38818 ft | 498 kts | 96° |
| 2026-05-04 06:53 | 23.27128 | 61.68883 | 38816 ft | 498 kts | 97° |
| 2026-05-04 06:54 | 23.26449 | 61.76373 | 38817 ft | 498 kts | 97° |
| 2026-05-04 06:54 | 23.25767 | 61.83833 | 38818 ft | 498 kts | 97° |
| 2026-05-04 06:55 | 23.25077 | 61.91342 | 38818 ft | 498 kts | 97° |
| 2026-05-04 06:55 | 23.24384 | 61.98833 | 38818 ft | 499 kts | 97° |
| 2026-05-04 06:57 | 23.21584 | 62.28710 | 38818 ft | 498 kts | 97° |
| 2026-05-04 06:58 | 23.20872 | 62.36209 | 38818 ft | 498 kts | 97° |
| 2026-05-04 06:58 | 23.20158 | 62.43682 | 38818 ft | 498 kts | 97° |
| 2026-05-04 06:59 | 23.19443 | 62.51144 | 38818 ft | 498 kts | 97° |
| 2026-05-04 06:59 | 23.18722 | 62.58622 | 38818 ft | 498 kts | 97° |
| 2026-05-04 07:01 | 23.15808 | 62.88546 | 38865 ft | 499 kts | 97° |
| 2026-05-04 07:02 | 23.15070 | 62.96010 | 38876 ft | 498 kts | 97° |
| 2026-05-04 07:02 | 23.14332 | 63.03434 | 38859 ft | 496 kts | 97° |
| 2026-05-04 07:03 | 23.13590 | 63.10870 | 38827 ft | 495 kts | 97° |
| 2026-05-04 07:03 | 23.12845 | 63.18308 | 38794 ft | 495 kts | 96° |
| 2026-05-04 07:04 | 23.12100 | 63.25714 | 38768 ft | 495 kts | 96° |
| 2026-05-04 07:04 | 23.11352 | 63.33110 | 38749 ft | 495 kts | 96° |
| 2026-05-04 07:05 | 23.10598 | 63.40532 | 38741 ft | 495 kts | 97° |
| 2026-05-04 07:05 | 23.09845 | 63.47908 | 38737 ft | 495 kts | 96° |
| 2026-05-04 07:06 | 23.08702 | 63.59034 | 38736 ft | 495 kts | 96° |
| 2026-05-04 07:07 | 23.07938 | 63.66432 | 38735 ft | 495 kts | 97° |
| 2026-05-04 07:09 | 23.04877 | 63.96066 | 38736 ft | 495 kts | 97° |
| 2026-05-04 07:09 | 23.04127 | 64.03470 | 38736 ft | 495 kts | 97° |
| 2026-05-04 07:10 | 23.03370 | 64.10891 | 38736 ft | 495 kts | 97° |
| 2026-05-04 07:12 | 23.00312 | 64.40468 | 38737 ft | 493 kts | 97° |
| 2026-05-04 07:12 | 22.99545 | 64.47794 | 38737 ft | 492 kts | 97° |
| 2026-05-04 07:13 | 22.98772 | 64.55152 | 38737 ft | 492 kts | 97° |
| 2026-05-04 07:13 | 22.97997 | 64.62489 | 38737 ft | 491 kts | 97° |
| 2026-05-04 07:14 | 22.96066 | 64.80821 | 38735 ft | 490 kts | 96° |
| 2026-05-04 07:15 | 22.95787 | 64.88200 | 38735 ft | 490 kts | 90° |
| 2026-05-04 07:15 | 22.95836 | 64.95545 | 38735 ft | 489 kts | 90° |
| 2026-05-04 07:16 | 22.95892 | 65.02934 | 38736 ft | 489 kts | 90° |
| 2026-05-04 07:16 | 22.95937 | 65.10259 | 38736 ft | 489 kts | 90° |
| 2026-05-04 07:17 | 22.95974 | 65.17611 | 38736 ft | 489 kts | 90° |
| 2026-05-04 07:17 | 22.96006 | 65.24965 | 38736 ft | 489 kts | 90° |
| 2026-05-04 07:18 | 22.96034 | 65.32314 | 38736 ft | 489 kts | 90° |
| 2026-05-04 07:18 | 22.96059 | 65.39671 | 38736 ft | 489 kts | 90° |
| 2026-05-04 07:19 | 22.96081 | 65.47043 | 38737 ft | 489 kts | 90° |
| 2026-05-04 07:19 | 22.96099 | 65.54427 | 38736 ft | 489 kts | 90° |
| 2026-05-04 07:20 | 22.96114 | 65.61769 | 38736 ft | 489 kts | 90° |
| 2026-05-04 07:20 | 22.96125 | 65.69124 | 38735 ft | 489 kts | 90° |
| 2026-05-04 07:22 | 22.96136 | 65.98582 | 38736 ft | 489 kts | 90° |
| 2026-05-04 07:23 | 22.96130 | 66.05963 | 38736 ft | 489 kts | 90° |
| 2026-05-04 07:23 | 22.96121 | 66.13303 | 38736 ft | 489 kts | 90° |
| 2026-05-04 07:24 | 22.96109 | 66.20690 | 38736 ft | 489 kts | 90° |
| 2026-05-04 07:24 | 22.96093 | 66.28040 | 38736 ft | 489 kts | 90° |
| 2026-05-04 07:26 | 22.95995 | 66.57521 | 38736 ft | 489 kts | 90° |
| 2026-05-04 07:27 | 22.95962 | 66.64838 | 38737 ft | 489 kts | 90° |
| 2026-05-04 07:27 | 22.95925 | 66.72224 | 38736 ft | 489 kts | 90° |
| 2026-05-04 07:28 | 22.95885 | 66.79563 | 38735 ft | 489 kts | 90° |
| 2026-05-04 07:28 | 22.95841 | 66.86931 | 38736 ft | 489 kts | 90° |
| 2026-05-04 07:29 | 22.95794 | 66.94292 | 38736 ft | 489 kts | 90° |
| 2026-05-04 07:29 | 22.95779 | 67.01669 | 38736 ft | 489 kts | 90° |
| 2026-05-04 07:30 | 22.95806 | 67.09006 | 38736 ft | 489 kts | 90° |
| 2026-05-04 07:30 | 22.95825 | 67.16339 | 38734 ft | 489 kts | 90° |
| 2026-05-04 07:31 | 22.95837 | 67.23702 | 38736 ft | 489 kts | 90° |
| 2026-05-04 07:33 | 22.95844 | 67.53127 | 38736 ft | 489 kts | 90° |
| 2026-05-04 07:33 | 22.95837 | 67.60512 | 38736 ft | 489 kts | 90° |
| 2026-05-04 07:34 | 22.95826 | 67.67890 | 38735 ft | 489 kts | 90° |
| 2026-05-04 07:34 | 22.95811 | 67.75240 | 38734 ft | 489 kts | 90° |
| 2026-05-04 07:35 | 22.95793 | 67.82565 | 38735 ft | 489 kts | 90° |
| 2026-05-04 07:35 | 22.95779 | 67.89938 | 38736 ft | 489 kts | 90° |
| 2026-05-04 07:36 | 22.95790 | 67.97335 | 38734 ft | 489 kts | 90° |
| 2026-05-04 07:38 | 22.95794 | 68.26792 | 38733 ft | 489 kts | 90° |
| 2026-05-04 07:38 | 22.95785 | 68.34188 | 38736 ft | 489 kts | 90° |
| 2026-05-04 07:39 | 22.95586 | 68.41512 | 38736 ft | 489 kts | 93° |
| 2026-05-04 07:39 | 22.95164 | 68.48868 | 38736 ft | 489 kts | 94° |
| 2026-05-04 07:40 | 22.94729 | 68.56264 | 38737 ft | 489 kts | 94° |
| 2026-05-04 07:40 | 22.94300 | 68.63575 | 38736 ft | 488 kts | 94° |
| 2026-05-04 07:41 | 22.93868 | 68.70970 | 38736 ft | 488 kts | 94° |
| 2026-05-04 07:41 | 22.93436 | 68.78293 | 38736 ft | 488 kts | 94° |
| 2026-05-04 07:42 | 22.93000 | 68.85646 | 38736 ft | 488 kts | 94° |
| 2026-05-04 07:42 | 22.92559 | 68.92997 | 38736 ft | 488 kts | 94° |
| 2026-05-04 07:43 | 22.92116 | 69.00330 | 38736 ft | 488 kts | 94° |
| 2026-05-04 07:43 | 22.91670 | 69.07661 | 38735 ft | 488 kts | 94° |
| 2026-05-04 07:44 | 22.91220 | 69.14996 | 38736 ft | 488 kts | 94° |
| 2026-05-04 07:44 | 22.90765 | 69.22366 | 38736 ft | 488 kts | 94° |
| 2026-05-04 07:45 | 22.90309 | 69.29700 | 38736 ft | 489 kts | 94° |
| 2026-05-04 07:45 | 22.89842 | 69.37077 | 38736 ft | 488 kts | 94° |
| 2026-05-04 07:46 | 22.89349 | 69.44409 | 38738 ft | 489 kts | 94° |
| 2026-05-04 07:46 | 22.88873 | 69.51724 | 38748 ft | 488 kts | 94° |
| 2026-05-04 07:47 | 22.88405 | 69.59067 | 38760 ft | 488 kts | 94° |
| 2026-05-04 07:49 | 22.86615 | 69.88480 | 38789 ft | 488 kts | 94° |
| 2026-05-04 07:49 | 22.86187 | 69.95788 | 38789 ft | 488 kts | 94° |
| 2026-05-04 07:50 | 22.85752 | 70.03140 | 38789 ft | 488 kts | 94° |
| 2026-05-04 07:50 | 22.85315 | 70.10482 | 38789 ft | 488 kts | 94° |
| 2026-05-04 07:51 | 22.84875 | 70.17815 | 38789 ft | 488 kts | 94° |
| 2026-05-04 07:51 | 22.84428 | 70.25208 | 38789 ft | 488 kts | 94° |
| 2026-05-04 07:52 | 22.83984 | 70.32489 | 38789 ft | 488 kts | 94° |
| 2026-05-04 07:52 | 22.83533 | 70.39851 | 38789 ft | 488 kts | 94° |
| 2026-05-04 07:54 | 22.81705 | 70.69243 | 38788 ft | 488 kts | 94° |
| 2026-05-04 07:55 | 22.81247 | 70.76556 | 38788 ft | 488 kts | 93° |
| 2026-05-04 07:55 | 22.81203 | 70.83890 | 38790 ft | 488 kts | 86° |
| 2026-05-04 07:56 | 22.81929 | 70.91221 | 38791 ft | 487 kts | 81° |
| 2026-05-04 07:56 | 22.83022 | 70.98448 | 38790 ft | 487 kts | 80° |
| 2026-05-04 07:57 | 22.84126 | 71.05698 | 38789 ft | 487 kts | 80° |
| 2026-05-04 07:57 | 22.85217 | 71.12950 | 38789 ft | 487 kts | 80° |
| 2026-05-04 07:58 | 22.86295 | 71.20186 | 38789 ft | 487 kts | 80° |
| 2026-05-04 07:58 | 22.87373 | 71.27445 | 38789 ft | 487 kts | 80° |
| 2026-05-04 07:59 | 22.88440 | 71.34665 | 38789 ft | 487 kts | 80° |
| 2026-05-04 07:59 | 22.89510 | 71.41925 | 38789 ft | 487 kts | 80° |
| 2026-05-04 08:00 | 22.90570 | 71.49139 | 38789 ft | 487 kts | 80° |
| 2026-05-04 08:02 | 22.94795 | 71.78176 | 38789 ft | 487 kts | 81° |
| 2026-05-04 08:02 | 22.95845 | 71.85452 | 38789 ft | 487 kts | 81° |
| 2026-05-04 08:03 | 22.96885 | 71.92673 | 38789 ft | 488 kts | 81° |
| 2026-05-04 08:03 | 22.97929 | 71.99939 | 38789 ft | 487 kts | 81° |
| 2026-05-04 08:04 | 22.98972 | 72.07231 | 38786 ft | 487 kts | 81° |
| 2026-05-04 08:04 | 23.00006 | 72.14478 | 38764 ft | 487 kts | 81° |
| 2026-05-04 08:05 | 23.01039 | 72.21736 | 38748 ft | 487 kts | 81° |
| 2026-05-04 08:05 | 23.02073 | 72.29028 | 38740 ft | 488 kts | 81° |
| 2026-05-04 08:06 | 23.03105 | 72.36319 | 38737 ft | 488 kts | 81° |
| 2026-05-04 08:06 | 23.04129 | 72.43576 | 38736 ft | 488 kts | 81° |
| 2026-05-04 08:08 | 23.07396 | 72.72799 | 38736 ft | 488 kts | 87° |
| 2026-05-04 08:11 | 23.09191 | 73.05888 | 38734 ft | 489 kts | 86° |
| 2026-05-04 08:11 | 23.09786 | 73.16949 | 38735 ft | 490 kts | 86° |
| 2026-05-04 08:12 | 23.10185 | 73.24312 | 38734 ft | 490 kts | 86° |
| 2026-05-04 08:12 | 23.10605 | 73.31706 | 38734 ft | 490 kts | 86° |
| 2026-05-04 08:13 | 23.11003 | 73.39047 | 38736 ft | 490 kts | 86° |
| 2026-05-04 08:13 | 23.11391 | 73.46450 | 38736 ft | 490 kts | 86° |
| 2026-05-04 08:14 | 23.11768 | 73.53794 | 38734 ft | 490 kts | 86° |
| 2026-05-04 08:16 | 23.13246 | 73.83337 | 38736 ft | 491 kts | 87° |
| 2026-05-04 08:16 | 23.13607 | 73.90714 | 38734 ft | 490 kts | 87° |
| 2026-05-04 08:17 | 23.13964 | 73.98071 | 38736 ft | 491 kts | 87° |
| 2026-05-04 08:17 | 23.14319 | 74.05467 | 38733 ft | 490 kts | 87° |
| 2026-05-04 08:19 | 23.15697 | 74.34963 | 38735 ft | 490 kts | 88° |
| 2026-05-04 08:20 | 23.15874 | 74.42385 | 38735 ft | 490 kts | 89° |
| 2026-05-04 08:20 | 23.16006 | 74.49734 | 38734 ft | 490 kts | 89° |
| 2026-05-04 08:21 | 23.16148 | 74.57117 | 38736 ft | 490 kts | 89° |
| 2026-05-04 08:21 | 23.16292 | 74.64531 | 38736 ft | 490 kts | 89° |
| 2026-05-04 08:22 | 23.16436 | 74.71919 | 38735 ft | 491 kts | 89° |
| 2026-05-04 08:24 | 23.16980 | 75.01606 | 38736 ft | 490 kts | 89° |
| 2026-05-04 08:24 | 23.17108 | 75.09070 | 38736 ft | 490 kts | 89° |
| 2026-05-04 08:25 | 23.17231 | 75.16489 | 38737 ft | 490 kts | 89° |
| 2026-05-04 08:25 | 23.17351 | 75.23923 | 38747 ft | 490 kts | 89° |
| 2026-05-04 08:27 | 23.17796 | 75.53497 | 38826 ft | 490 kts | 89° |
| 2026-05-04 08:28 | 23.17899 | 75.60890 | 38835 ft | 490 kts | 89° |
| 2026-05-04 08:28 | 23.17998 | 75.68281 | 38840 ft | 490 kts | 90° |
| 2026-05-04 08:29 | 23.18094 | 75.75719 | 38843 ft | 490 kts | 90° |
| 2026-05-04 08:31 | 23.18822 | 76.05815 | 38844 ft | 490 kts | 85° |
| 2026-05-04 08:33 | 23.21139 | 76.35503 | 38844 ft | 490 kts | 85° |
| 2026-05-04 08:35 | 23.23434 | 76.65971 | 38845 ft | 490 kts | 85° |
| 2026-05-04 08:35 | 23.24000 | 76.73645 | 38846 ft | 490 kts | 85° |
| 2026-05-04 08:37 | 23.25912 | 76.99873 | 38846 ft | 491 kts | 85° |
| 2026-05-04 08:38 | 23.26456 | 77.07418 | 38846 ft | 491 kts | 85° |
| 2026-05-04 08:38 | 23.26992 | 77.14908 | 38846 ft | 491 kts | 85° |
| 2026-05-04 08:40 | 23.27890 | 77.44608 | 38846 ft | 491 kts | 93° |
| 2026-05-04 08:41 | 23.27566 | 77.52032 | 38846 ft | 491 kts | 92° |
| 2026-05-04 08:41 | 23.27249 | 77.59451 | 38846 ft | 491 kts | 92° |
| 2026-05-04 08:42 | 23.26932 | 77.66939 | 38845 ft | 491 kts | 93° |
| 2026-05-04 08:42 | 23.26619 | 77.74333 | 38846 ft | 491 kts | 93° |
| 2026-05-04 08:43 | 23.26299 | 77.81768 | 38846 ft | 491 kts | 93° |
| 2026-05-04 08:43 | 23.25974 | 77.89241 | 38846 ft | 491 kts | 93° |
| 2026-05-04 08:44 | 23.25643 | 77.96764 | 38846 ft | 491 kts | 93° |
| 2026-05-04 08:46 | 23.24295 | 78.26618 | 38846 ft | 491 kts | 93° |
| 2026-05-04 08:46 | 23.23948 | 78.34103 | 38846 ft | 491 kts | 93° |
| 2026-05-04 08:47 | 23.23600 | 78.41550 | 38846 ft | 491 kts | 93° |
| 2026-05-04 08:47 | 23.23251 | 78.48925 | 38846 ft | 491 kts | 93° |
| 2026-05-04 08:48 | 23.22898 | 78.56344 | 38846 ft | 491 kts | 93° |
| 2026-05-04 08:48 | 23.22545 | 78.63694 | 38846 ft | 491 kts | 93° |
| 2026-05-04 08:49 | 23.22184 | 78.71117 | 38846 ft | 491 kts | 93° |
| 2026-05-04 08:50 | 23.21708 | 78.97041 | 38846 ft | 491 kts | 91° |
| 2026-05-04 08:51 | 23.21593 | 79.04478 | 38846 ft | 491 kts | 91° |
| 2026-05-04 08:51 | 23.21474 | 79.11908 | 38846 ft | 491 kts | 91° |
| 2026-05-04 08:52 | 23.21353 | 79.19279 | 38846 ft | 491 kts | 91° |
| 2026-05-04 08:52 | 23.21228 | 79.26711 | 38846 ft | 491 kts | 91° |
| 2026-05-04 08:54 | 23.20695 | 79.56381 | 38846 ft | 491 kts | 91° |
| 2026-05-04 08:55 | 23.20431 | 79.63773 | 38846 ft | 491 kts | 92° |
| 2026-05-04 08:55 | 23.20095 | 79.71254 | 38846 ft | 491 kts | 92° |
| 2026-05-04 09:01 | 23.16332 | 80.49124 | 38846 ft | 491 kts | 93° |
| 2026-05-04 09:01 | 23.15939 | 80.56456 | 38846 ft | 491 kts | 93° |
| 2026-05-04 09:02 | 23.15535 | 80.63912 | 38846 ft | 491 kts | 93° |
| 2026-05-04 09:02 | 23.15134 | 80.71272 | 38846 ft | 491 kts | 93° |
| 2026-05-04 09:03 | 23.14723 | 80.78751 | 38846 ft | 491 kts | 93° |
| 2026-05-04 09:03 | 23.14318 | 80.86243 | 38846 ft | 491 kts | 93° |
| 2026-05-04 09:04 | 23.13913 | 80.93705 | 38846 ft | 491 kts | 93° |
| 2026-05-04 09:04 | 23.13498 | 81.01271 | 38861 ft | 491 kts | 93° |
| 2026-05-04 09:05 | 23.13065 | 81.09078 | 38948 ft | 491 kts | 93° |
| 2026-05-04 09:05 | 23.12631 | 81.16844 | 39008 ft | 490 kts | 93° |
| 2026-05-04 09:06 | 23.12195 | 81.24570 | 39038 ft | 490 kts | 93° |
| 2026-05-04 09:08 | 23.10459 | 81.54709 | 39064 ft | 489 kts | 93° |
| 2026-05-04 09:08 | 23.10021 | 81.62158 | 39064 ft | 489 kts | 93° |
| 2026-05-04 09:09 | 23.09575 | 81.69692 | 39063 ft | 489 kts | 94° |
| 2026-05-04 09:09 | 23.09125 | 81.77228 | 39063 ft | 489 kts | 94° |
| 2026-05-04 09:10 | 23.08660 | 81.84950 | 39063 ft | 489 kts | 94° |
| 2026-05-04 09:10 | 23.08195 | 81.92611 | 39063 ft | 489 kts | 94° |
| 2026-05-04 09:11 | 23.07729 | 82.00231 | 39063 ft | 489 kts | 94° |
| 2026-05-04 09:11 | 23.07255 | 82.07906 | 39063 ft | 489 kts | 94° |
| 2026-05-04 09:12 | 23.06794 | 82.15316 | 39063 ft | 489 kts | 94° |
| 2026-05-04 09:14 | 23.05490 | 82.44740 | 39064 ft | 489 kts | 92° |
| 2026-05-04 09:14 | 23.05162 | 82.52125 | 39064 ft | 489 kts | 92° |
| 2026-05-04 09:15 | 23.04831 | 82.59470 | 39064 ft | 489 kts | 92° |
| 2026-05-04 09:15 | 23.04496 | 82.66826 | 39062 ft | 489 kts | 93° |
| 2026-05-04 09:17 | 23.02959 | 82.99742 | 39064 ft | 488 kts | 93° |
| 2026-05-04 09:18 | 23.02607 | 83.07064 | 39064 ft | 487 kts | 93° |
| 2026-05-04 09:18 | 23.02252 | 83.14360 | 39064 ft | 487 kts | 93° |
| 2026-05-04 09:19 | 23.01894 | 83.21661 | 39064 ft | 487 kts | 93° |
| 2026-05-04 09:19 | 23.01532 | 83.28979 | 39064 ft | 487 kts | 93° |
| 2026-05-04 09:20 | 23.01166 | 83.36301 | 39064 ft | 487 kts | 93° |
| 2026-05-04 09:20 | 23.00798 | 83.43617 | 39064 ft | 487 kts | 93° |
| 2026-05-04 09:21 | 23.00416 | 83.51135 | 39064 ft | 487 kts | 93° |
| 2026-05-04 09:21 | 23.00018 | 83.58885 | 39064 ft | 486 kts | 93° |
| 2026-05-04 09:22 | 22.99627 | 83.66434 | 39063 ft | 486 kts | 93° |
| 2026-05-04 09:22 | 22.99236 | 83.73930 | 39063 ft | 486 kts | 93° |
| 2026-05-04 09:23 | 22.98838 | 83.81486 | 39063 ft | 486 kts | 93° |
| 2026-05-04 09:23 | 22.98438 | 83.89010 | 39063 ft | 486 kts | 93° |
| 2026-05-04 09:25 | 22.96678 | 84.19729 | 39064 ft | 486 kts | 94° |
| 2026-05-04 09:26 | 22.96104 | 84.27470 | 39064 ft | 486 kts | 94° |
| 2026-05-04 09:26 | 22.95534 | 84.35225 | 39064 ft | 485 kts | 94° |
| 2026-05-04 09:27 | 22.94967 | 84.42950 | 39064 ft | 485 kts | 94° |
| 2026-05-04 09:27 | 22.94394 | 84.50721 | 39064 ft | 485 kts | 94° |
| 2026-05-04 09:28 | 22.93824 | 84.58411 | 39064 ft | 485 kts | 94° |
| 2026-05-04 09:28 | 22.93247 | 84.66158 | 39063 ft | 485 kts | 95° |
| 2026-05-04 09:29 | 22.92677 | 84.73768 | 39063 ft | 485 kts | 95° |
| 2026-05-04 09:29 | 22.92091 | 84.81530 | 39063 ft | 485 kts | 95° |
| 2026-05-04 09:30 | 22.91509 | 84.89180 | 39063 ft | 484 kts | 95° |
| 2026-05-04 09:30 | 22.90924 | 84.96809 | 39063 ft | 484 kts | 94° |
| 2026-05-04 09:31 | 22.90348 | 85.04302 | 39064 ft | 484 kts | 95° |
| 2026-05-04 09:31 | 22.89765 | 85.11726 | 39064 ft | 483 kts | 95° |
| 2026-05-04 09:32 | 22.89159 | 85.19189 | 39064 ft | 481 kts | 95° |
| 2026-05-04 09:34 | 22.86802 | 85.49181 | 39063 ft | 480 kts | 95° |
| 2026-05-04 09:34 | 22.86202 | 85.56767 | 39039 ft | 479 kts | 95° |
| 2026-05-04 09:35 | 22.85592 | 85.64439 | 38960 ft | 480 kts | 95° |
| 2026-05-04 09:35 | 22.84991 | 85.71976 | 38896 ft | 480 kts | 95° |
| 2026-05-04 09:37 | 22.82518 | 86.02498 | 38820 ft | 481 kts | 95° |
| 2026-05-04 09:38 | 22.81895 | 86.10120 | 38818 ft | 481 kts | 95° |
| 2026-05-04 09:38 | 22.81273 | 86.17648 | 38817 ft | 481 kts | 95° |
| 2026-05-04 09:39 | 22.80824 | 86.25088 | 38818 ft | 481 kts | 93° |
| 2026-05-04 09:39 | 22.80446 | 86.32400 | 38817 ft | 481 kts | 93° |
| 2026-05-04 09:40 | 22.80054 | 86.39779 | 38817 ft | 481 kts | 93° |
| 2026-05-04 09:40 | 22.79654 | 86.47134 | 38817 ft | 481 kts | 93° |
| 2026-05-04 09:42 | 22.77994 | 86.76840 | 38818 ft | 481 kts | 94° |
| 2026-05-04 09:43 | 22.77574 | 86.84196 | 38818 ft | 481 kts | 94° |
| 2026-05-04 09:43 | 22.77152 | 86.91522 | 38818 ft | 480 kts | 94° |
| 2026-05-04 09:44 | 22.76725 | 86.98852 | 38818 ft | 479 kts | 94° |
| 2026-05-04 09:46 | 22.74978 | 87.28357 | 38824 ft | 475 kts | 94° |
| 2026-05-04 09:46 | 22.74534 | 87.35708 | 38830 ft | 475 kts | 94° |
| 2026-05-04 09:47 | 22.74090 | 87.43010 | 38837 ft | 475 kts | 94° |
| 2026-05-04 09:49 | 22.72259 | 87.72576 | 38844 ft | 475 kts | 94° |
| 2026-05-04 09:51 | 22.70574 | 87.99049 | 38844 ft | 475 kts | 94° |
| 2026-05-04 09:51 | 22.70086 | 88.06594 | 38844 ft | 475 kts | 94° |
| 2026-05-04 09:52 | 22.69606 | 88.13965 | 38844 ft | 475 kts | 94° |
| 2026-05-04 09:52 | 22.69109 | 88.21555 | 38844 ft | 475 kts | 94° |
| 2026-05-04 09:53 | 22.68613 | 88.29094 | 38844 ft | 475 kts | 94° |
| 2026-05-04 09:53 | 22.68113 | 88.36666 | 38844 ft | 475 kts | 94° |
| 2026-05-04 09:54 | 22.67557 | 88.44152 | 38844 ft | 475 kts | 96° |
| 2026-05-04 09:54 | 22.66462 | 88.51569 | 38844 ft | 475 kts | 100° |
| 2026-05-04 09:55 | 22.65227 | 88.58954 | 38844 ft | 475 kts | 100° |